sensor_id;sensor_type;location;lat;lon;timestamp;pressure;altitude;pressure_sealevel;temperature;humidity
1954;BME280;977;42.704;23.354;2022-08-23T00:01:37;94607.69;;;19.50;100.00
1954;BME280;977;42.704;23.354;2022-08-23T00:04:19;94611.41;;;19.32;100.00
1954;BME280;977;42.704;23.354;2022-08-23T00:06:46;94614.00;;;19.27;100.00
1954;BME280;977;42.704;23.354;2022-08-23T00:09:12;94613.19;;;19.26;100.00
1954;BME280;977;42.704;23.354;2022-08-23T00:11:44;94624.41;;;19.17;100.00
1954;BME280;977;42.704;23.354;2022-08-23T00:16:41;94613.72;;;19.06;100.00
1954;BME280;977;42.704;23.354;2022-08-23T00:19:09;94621.06;;;19.04;100.00
1954;BME280;977;42.704;23.354;2022-08-23T00:21:36;94621.09;;;18.87;100.00
1954;BME280;977;42.704;23.354;2022-08-23T00:24:04;94624.19;;;18.68;100.00
1954;BME280;977;42.704;23.354;2022-08-23T00:27:11;94618.53;;;18.76;100.00
1954;BME280;977;42.704;23.354;2022-08-23T00:29:53;94615.03;;;18.70;100.00
1954;BME280;977;42.704;23.354;2022-08-23T00:32:21;94624.78;;;18.70;100.00
1954;BME280;977;42.704;23.354;2022-08-23T00:34:48;94632.81;;;18.63;100.00
1954;BME280;977;42.704;23.354;2022-08-23T00:37:13;94620.75;;;18.50;100.00
1954;BME280;977;42.704;23.354;2022-08-23T00:39:39;94632.44;;;18.54;100.00
1954;BME280;977;42.704;23.354;2022-08-23T00:42:33;94624.44;;;18.49;100.00
1954;BME280;977;42.704;23.354;2022-08-23T00:45:27;94610.22;;;18.50;100.00
1954;BME280;977;42.704;23.354;2022-08-23T00:48:13;94615.97;;;18.47;100.00
1954;BME280;977;42.704;23.354;2022-08-23T00:50:40;94617.47;;;18.43;100.00
1954;BME280;977;42.704;23.354;2022-08-23T00:53:14;94622.53;;;18.45;100.00
1954;BME280;977;42.704;23.354;2022-08-23T00:55:43;94624.91;;;18.46;100.00
1954;BME280;977;42.704;23.354;2022-08-23T00:58:12;94631.22;;;18.45;100.00
1954;BME280;977;42.704;23.354;2022-08-23T01:00:38;94629.72;;;18.49;100.00
1954;BME280;977;42.704;23.354;2022-08-23T01:03:06;94623.53;;;18.44;100.00
1954;BME280;977;42.704;23.354;2022-08-23T01:05:46;94622.53;;;18.45;100.00
1954;BME280;977;42.704;23.354;2022-08-23T01:08:18;94625.94;;;18.45;100.00
1954;BME280;977;42.704;23.354;2022-08-23T01:10:50;94632.66;;;18.53;100.00
1954;BME280;977;42.704;23.354;2022-08-23T01:13:21;94618.59;;;18.47;100.00
1954;BME280;977;42.704;23.354;2022-08-23T01:16:04;94624.44;;;18.49;100.00
1954;BME280;977;42.704;23.354;2022-08-23T01:18:32;94631.31;;;18.50;100.00
1954;BME280;977;42.704;23.354;2022-08-23T01:23:40;94641.47;;;18.30;100.00
1954;BME280;977;42.704;23.354;2022-08-23T01:26:07;94623.88;;;18.30;100.00
1954;BME280;977;42.704;23.354;2022-08-23T01:28:33;94630.41;;;18.28;100.00
1954;BME280;977;42.704;23.354;2022-08-23T01:30:59;94622.81;;;18.31;100.00
1954;BME280;977;42.704;23.354;2022-08-23T01:33:25;94629.44;;;18.34;100.00
1954;BME280;977;42.704;23.354;2022-08-23T01:35:53;94631.94;;;18.41;100.00
1954;BME280;977;42.704;23.354;2022-08-23T01:38:19;94634.78;;;18.39;100.00
1954;BME280;977;42.704;23.354;2022-08-23T01:40:45;94636.72;;;18.44;100.00
1954;BME280;977;42.704;23.354;2022-08-23T01:43:12;94632.81;;;18.46;100.00
1954;BME280;977;42.704;23.354;2022-08-23T01:45:38;94630.66;;;18.43;100.00
1954;BME280;977;42.704;23.354;2022-08-23T01:48:04;94637.50;;;18.44;100.00
1954;BME280;977;42.704;23.354;2022-08-23T01:50:30;94637.50;;;18.44;100.00
1954;BME280;977;42.704;23.354;2022-08-23T01:52:56;94624.59;;;18.43;100.00
1954;BME280;977;42.704;23.354;2022-08-23T01:55:22;94632.81;;;18.46;100.00
1954;BME280;977;42.704;23.354;2022-08-23T01:57:51;94617.97;;;18.40;100.00
1954;BME280;977;42.704;23.354;2022-08-23T02:00:20;94632.72;;;18.41;100.00
1954;BME280;977;42.704;23.354;2022-08-23T02:02:46;94625.38;;;18.43;100.00
1954;BME280;977;42.704;23.354;2022-08-23T02:05:11;94623.31;;;18.45;100.00
1954;BME280;977;42.704;23.354;2022-08-23T02:07:37;94618.44;;;18.37;100.00
1954;BME280;977;42.704;23.354;2022-08-23T02:10:04;94620.59;;;18.40;100.00
1954;BME280;977;42.704;23.354;2022-08-23T02:12:30;94624.25;;;18.39;100.00
1954;BME280;977;42.704;23.354;2022-08-23T02:14:56;94635.19;;;18.31;100.00
1954;BME280;977;42.704;23.354;2022-08-23T02:17:21;94630.88;;;18.25;100.00
1954;BME280;977;42.704;23.354;2022-08-23T02:19:46;94621.84;;;18.21;100.00
1954;BME280;977;42.704;23.354;2022-08-23T02:22:12;94633.50;;;18.25;100.00
1954;BME280;977;42.704;23.354;2022-08-23T02:24:44;94627.75;;;18.28;100.00
1954;BME280;977;42.704;23.354;2022-08-23T02:27:11;94629.84;;;18.26;100.00
1954;BME280;977;42.704;23.354;2022-08-23T02:29:40;94623.63;;;18.32;100.00
1954;BME280;977;42.704;23.354;2022-08-23T02:32:07;94614.22;;;18.36;100.00
1954;BME280;977;42.704;23.354;2022-08-23T02:34:33;94621.06;;;18.37;100.00
1954;BME280;977;42.704;23.354;2022-08-23T02:37:00;94611.66;;;18.41;100.00
1954;BME280;977;42.704;23.354;2022-08-23T02:39:25;94624.44;;;18.49;100.00
1954;BME280;977;42.704;23.354;2022-08-23T02:41:51;94625.72;;;18.47;100.00
1954;BME280;977;42.704;23.354;2022-08-23T02:44:18;94629.06;;;18.42;100.00
1954;BME280;977;42.704;23.354;2022-08-23T02:46:44;94632.72;;;18.41;100.00
1954;BME280;977;42.704;23.354;2022-08-23T02:49:10;94634.50;;;18.35;100.00
1954;BME280;977;42.704;23.354;2022-08-23T02:51:36;94633.28;;;18.43;100.00
1954;BME280;977;42.704;23.354;2022-08-23T02:54:02;94625.88;;;18.40;100.00
1954;BME280;977;42.704;23.354;2022-08-23T02:56:28;94629.72;;;18.49;100.00
1954;BME280;977;42.704;23.354;2022-08-23T02:58:54;94635.06;;;18.54;100.00
1954;BME280;977;42.704;23.354;2022-08-23T03:01:26;94635.13;;;18.59;100.00
1954;BME280;977;42.704;23.354;2022-08-23T03:03:53;94623.63;;;18.65;100.00
1954;BME280;977;42.704;23.354;2022-08-23T03:06:19;94625.72;;;18.63;100.00
1954;BME280;977;42.704;23.354;2022-08-23T03:08:45;94631.78;;;18.64;100.00
1954;BME280;977;42.704;23.354;2022-08-23T03:11:12;94616.41;;;18.73;100.00
1954;BME280;977;42.704;23.354;2022-08-23T03:13:42;94616.41;;;18.73;100.00
1954;BME280;977;42.704;23.354;2022-08-23T03:16:10;94616.94;;;18.75;100.00
1954;BME280;977;42.704;23.354;2022-08-23T03:18:37;94617.19;;;18.73;100.00
1954;BME280;977;42.704;23.354;2022-08-23T03:21:04;94615.97;;;18.81;100.00
1954;BME280;977;42.704;23.354;2022-08-23T03:23:31;94616.47;;;18.78;100.00
1954;BME280;977;42.704;23.354;2022-08-23T03:25:58;94618.06;;;18.79;100.00
1954;BME280;977;42.704;23.354;2022-08-23T03:28:25;94615.38;;;18.74;100.00
1954;BME280;977;42.704;23.354;2022-08-23T03:30:50;94621.09;;;18.71;100.00
1954;BME280;977;42.704;23.354;2022-08-23T03:33:17;94626.22;;;18.77;100.00
1954;BME280;977;42.704;23.354;2022-08-23T03:35:42;94620.13;;;18.77;100.00
1954;BME280;977;42.704;23.354;2022-08-23T03:38:08;94621.19;;;18.76;100.00
1954;BME280;977;42.704;23.354;2022-08-23T03:40:34;94623.75;;;18.71;100.00
1954;BME280;977;42.704;23.354;2022-08-23T03:43:00;94632.09;;;18.68;100.00
1954;BME280;977;42.704;23.354;2022-08-23T03:45:27;94635.34;;;18.58;100.00
1954;BME280;977;42.704;23.354;2022-08-23T03:47:53;94643.75;;;18.55;100.00
1954;BME280;977;42.704;23.354;2022-08-23T03:50:19;94641.91;;;18.55;100.00
1954;BME280;977;42.704;23.354;2022-08-23T03:52:45;94637.44;;;18.56;100.00
1954;BME280;977;42.704;23.354;2022-08-23T03:55:12;94649.66;;;18.45;100.00
1954;BME280;977;42.704;23.354;2022-08-23T03:57:38;94656.06;;;18.49;100.00
1954;BME280;977;42.704;23.354;2022-08-23T04:00:08;94661.00;;;18.46;100.00
1954;BME280;977;42.704;23.354;2022-08-23T04:02:35;94665.94;;;18.42;100.00
1954;BME280;977;42.704;23.354;2022-08-23T04:05:00;94670.09;;;18.38;100.00
1954;BME280;977;42.704;23.354;2022-08-23T04:07:26;94672.63;;;18.33;100.00
1954;BME280;977;42.704;23.354;2022-08-23T04:09:52;94673.09;;;18.30;100.00
1954;BME280;977;42.704;23.354;2022-08-23T04:12:18;94687.63;;;18.32;100.00
1954;BME280;977;42.704;23.354;2022-08-23T04:14:44;94673.25;;;18.23;100.00
1954;BME280;977;42.704;23.354;2022-08-23T04:17:14;94672.00;;;18.26;100.00
1954;BME280;977;42.704;23.354;2022-08-23T04:19:39;94697.38;;;18.32;100.00
1954;BME280;977;42.704;23.354;2022-08-23T04:22:10;94684.22;;;18.32;100.00
1954;BME280;977;42.704;23.354;2022-08-23T04:24:38;94684.44;;;18.30;100.00
1954;BME280;977;42.704;23.354;2022-08-23T04:27:04;94677.38;;;18.19;100.00
1954;BME280;977;42.704;23.354;2022-08-23T04:29:30;94698.34;;;18.26;100.00
1954;BME280;977;42.704;23.354;2022-08-23T04:31:55;94690.66;;;18.24;100.00
1954;BME280;977;42.704;23.354;2022-08-23T04:34:21;94690.81;;;18.34;100.00
1954;BME280;977;42.704;23.354;2022-08-23T04:36:46;94691.81;;;18.45;100.00
1954;BME280;977;42.704;23.354;2022-08-23T04:39:12;94704.28;;;18.50;100.00
1954;BME280;977;42.704;23.354;2022-08-23T04:41:38;94684.13;;;18.44;100.00
1954;BME280;977;42.704;23.354;2022-08-23T04:44:22;94693.13;;;18.59;100.00
1954;BME280;977;42.704;23.354;2022-08-23T04:46:48;94701.81;;;18.60;100.00
1954;BME280;977;42.704;23.354;2022-08-23T04:49:14;94709.47;;;18.73;100.00
1954;BME280;977;42.704;23.354;2022-08-23T04:51:39;94688.47;;;18.67;100.00
1954;BME280;977;42.704;23.354;2022-08-23T04:54:05;94701.78;;;18.88;100.00
1954;BME280;977;42.704;23.354;2022-08-23T04:56:35;94710.31;;;18.96;100.00
1954;BME280;977;42.704;23.354;2022-08-23T04:59:01;94712.81;;;19.02;100.00
1954;BME280;977;42.704;23.354;2022-08-23T05:01:27;94715.59;;;19.12;100.00
1954;BME280;977;42.704;23.354;2022-08-23T05:03:53;94721.75;;;19.35;100.00
1954;BME280;977;42.704;23.354;2022-08-23T05:06:20;94720.38;;;19.32;100.00
1954;BME280;977;42.704;23.354;2022-08-23T05:08:46;94725.13;;;19.52;100.00
1954;BME280;977;42.704;23.354;2022-08-23T05:11:12;94726.34;;;19.61;100.00
1954;BME280;977;42.704;23.354;2022-08-23T05:13:37;94729.06;;;19.66;100.00
1954;BME280;977;42.704;23.354;2022-08-23T05:16:04;94735.97;;;19.68;100.00
1954;BME280;977;42.704;23.354;2022-08-23T05:18:30;94742.16;;;19.78;100.00
1954;BME280;977;42.704;23.354;2022-08-23T05:20:56;94741.25;;;19.89;100.00
1954;BME280;977;42.704;23.354;2022-08-23T05:23:22;94735.53;;;19.98;100.00
1954;BME280;977;42.704;23.354;2022-08-23T05:25:48;94733.81;;;20.08;100.00
1954;BME280;977;42.704;23.354;2022-08-23T05:28:19;94734.50;;;20.21;100.00
1954;BME280;977;42.704;23.354;2022-08-23T05:30:53;94738.78;;;20.27;100.00
1954;BME280;977;42.704;23.354;2022-08-23T05:33:19;94735.16;;;20.33;100.00
1954;BME280;977;42.704;23.354;2022-08-23T05:35:46;94744.59;;;20.51;100.00
1954;BME280;977;42.704;23.354;2022-08-23T05:38:11;94742.41;;;20.70;100.00
1954;BME280;977;42.704;23.354;2022-08-23T05:40:37;94736.22;;;20.86;100.00
1954;BME280;977;42.704;23.354;2022-08-23T05:43:05;94744.13;;;21.13;100.00
1954;BME280;977;42.704;23.354;2022-08-23T05:45:31;94748.16;;;21.21;100.00
1954;BME280;977;42.704;23.354;2022-08-23T05:47:56;94750.81;;;21.26;100.00
1954;BME280;977;42.704;23.354;2022-08-23T05:50:25;94742.66;;;21.27;100.00
1954;BME280;977;42.704;23.354;2022-08-23T05:52:53;94740.44;;;21.46;100.00
1954;BME280;977;42.704;23.354;2022-08-23T05:55:18;94748.56;;;21.82;100.00
1954;BME280;977;42.704;23.354;2022-08-23T05:57:44;94748.44;;;22.04;100.00
1954;BME280;977;42.704;23.354;2022-08-23T06:00:10;94741.38;;;22.25;100.00
1954;BME280;977;42.704;23.354;2022-08-23T06:02:38;94743.53;;;22.38;100.00
1954;BME280;977;42.704;23.354;2022-08-23T06:05:04;94755.22;;;22.47;100.00
1954;BME280;977;42.704;23.354;2022-08-23T06:07:29;94754.47;;;22.72;100.00
1954;BME280;977;42.704;23.354;2022-08-23T06:09:55;94748.97;;;23.09;100.00
1954;BME280;977;42.704;23.354;2022-08-23T06:12:21;94768.09;;;23.42;100.00
1954;BME280;977;42.704;23.354;2022-08-23T06:14:46;94766.50;;;23.66;100.00
1954;BME280;977;42.704;23.354;2022-08-23T06:17:12;94756.94;;;23.65;100.00
1954;BME280;977;42.704;23.354;2022-08-23T06:19:37;94768.34;;;23.81;100.00
1954;BME280;977;42.704;23.354;2022-08-23T06:22:03;94755.31;;;23.80;100.00
1954;BME280;977;42.704;23.354;2022-08-23T06:24:29;94777.06;;;23.97;100.00
1954;BME280;977;42.704;23.354;2022-08-23T06:27:01;94775.94;;;24.13;100.00
1954;BME280;977;42.704;23.354;2022-08-23T06:29:27;94767.25;;;23.97;100.00
1954;BME280;977;42.704;23.354;2022-08-23T06:31:53;94780.72;;;24.21;100.00
1954;BME280;977;42.704;23.354;2022-08-23T06:36:49;94779.34;;;24.94;100.00
1954;BME280;977;42.704;23.354;2022-08-23T06:39:18;94765.19;;;25.38;100.00
1954;BME280;977;42.704;23.354;2022-08-23T06:41:44;94765.38;;;25.46;100.00
1954;BME280;977;42.704;23.354;2022-08-23T06:44:13;94773.00;;;25.58;100.00
1954;BME280;977;42.704;23.354;2022-08-23T06:46:39;94761.69;;;25.71;80.79
1954;BME280;977;42.704;23.354;2022-08-23T06:49:05;94768.03;;;26.05;76.14
1954;BME280;977;42.704;23.354;2022-08-23T06:51:40;94779.00;;;26.27;73.72
1954;BME280;977;42.704;23.354;2022-08-23T06:54:10;94776.75;;;26.58;73.78
1954;BME280;977;42.704;23.354;2022-08-23T06:56:38;94793.47;;;26.88;70.17
1954;BME280;977;42.704;23.354;2022-08-23T06:59:05;94784.59;;;26.73;70.36
1954;BME280;977;42.704;23.354;2022-08-23T07:01:44;94786.31;;;26.40;71.29
1954;BME280;977;42.704;23.354;2022-08-23T07:04:12;94790.88;;;26.35;73.02
1954;BME280;977;42.704;23.354;2022-08-23T07:06:38;94774.09;;;26.58;71.35
1954;BME280;977;42.704;23.354;2022-08-23T07:09:05;94783.78;;;26.54;70.69
1954;BME280;977;42.704;23.354;2022-08-23T07:11:32;94786.75;;;26.23;71.86
1954;BME280;977;42.704;23.354;2022-08-23T07:14:05;94787.16;;;26.60;73.16
1954;BME280;977;42.704;23.354;2022-08-23T07:16:36;94807.50;;;27.17;69.84
1954;BME280;977;42.704;23.354;2022-08-23T07:19:02;94792.19;;;27.56;68.55
1954;BME280;977;42.704;23.354;2022-08-23T07:21:28;94790.03;;;28.18;65.35
1954;BME280;977;42.704;23.354;2022-08-23T07:23:54;94799.28;;;28.67;63.88
1954;BME280;977;42.704;23.354;2022-08-23T07:26:20;94791.50;;;27.83;65.11
1954;BME280;977;42.704;23.354;2022-08-23T07:28:47;94788.25;;;27.99;64.82
1954;BME280;977;42.704;23.354;2022-08-23T07:31:18;94781.03;;;28.00;64.54
1954;BME280;977;42.704;23.354;2022-08-23T07:33:45;94785.41;;;28.10;64.10
1954;BME280;977;42.704;23.354;2022-08-23T07:36:15;94776.19;;;28.30;63.33
1954;BME280;977;42.704;23.354;2022-08-23T07:38:46;94783.34;;;28.48;61.18
1954;BME280;977;42.704;23.354;2022-08-23T07:41:12;94790.16;;;28.26;63.14
1954;BME280;977;42.704;23.354;2022-08-23T07:43:38;94793.94;;;28.39;63.04
1954;BME280;977;42.704;23.354;2022-08-23T07:46:05;94787.19;;;28.28;63.44
1954;BME280;977;42.704;23.354;2022-08-23T07:48:34;94782.91;;;28.27;63.33
1954;BME280;977;42.704;23.354;2022-08-23T07:51:03;94795.22;;;28.28;62.41
1954;BME280;977;42.704;23.354;2022-08-23T07:53:30;94797.16;;;27.81;63.72
1954;BME280;977;42.704;23.354;2022-08-23T07:55:56;94803.41;;;27.58;64.30
1954;BME280;977;42.704;23.354;2022-08-23T07:58:23;94792.22;;;27.37;65.63
1954;BME280;977;42.704;23.354;2022-08-23T08:00:51;94801.84;;;27.19;65.83
1954;BME280;977;42.704;23.354;2022-08-23T08:03:17;94791.66;;;27.02;66.13
1954;BME280;977;42.704;23.354;2022-08-23T08:05:43;94795.41;;;27.01;67.14
1954;BME280;977;42.704;23.354;2022-08-23T08:08:09;94803.56;;;26.91;67.58
1954;BME280;977;42.704;23.354;2022-08-23T08:10:37;94798.03;;;26.87;67.06
1954;BME280;977;42.704;23.354;2022-08-23T08:13:03;94802.09;;;26.61;67.31
1954;BME280;977;42.704;23.354;2022-08-23T08:15:29;94797.19;;;26.49;68.03
1954;BME280;977;42.704;23.354;2022-08-23T08:17:55;94795.44;;;26.34;69.11
1954;BME280;977;42.704;23.354;2022-08-23T08:20:21;94809.75;;;26.19;69.39
1954;BME280;977;42.704;23.354;2022-08-23T08:22:47;94815.56;;;26.27;68.34
1954;BME280;977;42.704;23.354;2022-08-23T08:25:13;94811.56;;;26.24;69.64
1954;BME280;977;42.704;23.354;2022-08-23T08:27:39;94813.28;;;25.86;70.26
1954;BME280;977;42.704;23.354;2022-08-23T08:30:08;94807.34;;;25.94;71.29
1954;BME280;977;42.704;23.354;2022-08-23T08:32:34;94817.31;;;26.12;69.24
1954;BME280;977;42.704;23.354;2022-08-23T08:35:00;94796.88;;;26.27;69.52
1954;BME280;977;42.704;23.354;2022-08-23T08:37:30;94810.22;;;26.50;68.02
1954;BME280;977;42.704;23.354;2022-08-23T08:39:56;94814.50;;;26.70;68.99
1954;BME280;977;42.704;23.354;2022-08-23T08:42:50;94813.09;;;26.97;67.45
1954;BME280;977;42.704;23.354;2022-08-23T08:45:31;94799.69;;;27.02;66.39
1954;BME280;977;42.704;23.354;2022-08-23T08:48:06;94796.81;;;27.17;65.36
1954;BME280;977;42.704;23.354;2022-08-23T08:50:47;94816.22;;;27.23;65.27
1954;BME280;977;42.704;23.354;2022-08-23T08:53:25;94800.31;;;26.75;66.16
1954;BME280;977;42.704;23.354;2022-08-23T08:55:57;94793.31;;;26.79;66.14
1954;BME280;977;42.704;23.354;2022-08-23T08:58:40;94787.31;;;26.68;66.36
1954;BME280;977;42.704;23.354;2022-08-23T09:01:08;94775.19;;;26.76;67.41
1954;BME280;977;42.704;23.354;2022-08-23T09:03:41;94793.63;;;27.15;66.33
1954;BME280;977;42.704;23.354;2022-08-23T09:11:50;94780.63;;;27.27;65.88
1954;BME280;977;42.704;23.354;2022-08-23T09:14:50;94777.13;;;27.46;64.53
1954;BME280;977;42.704;23.354;2022-08-23T09:17:41;94773.34;;;27.80;63.78
1954;BME280;977;42.704;23.354;2022-08-23T09:20:09;94773.69;;;27.92;63.91
1954;BME280;977;42.704;23.354;2022-08-23T09:22:40;94780.03;;;27.96;64.40
1954;BME280;977;42.704;23.354;2022-08-23T09:25:23;94771.63;;;28.16;63.41
1954;BME280;977;42.704;23.354;2022-08-23T09:27:49;94760.44;;;28.28;63.14
1954;BME280;977;42.704;23.354;2022-08-23T09:30:17;94760.44;;;28.28;62.84
1954;BME280;977;42.704;23.354;2022-08-23T09:32:45;94787.91;;;28.61;61.38
1954;BME280;977;42.704;23.354;2022-08-23T09:35:23;94783.69;;;28.83;60.39
1954;BME280;977;42.704;23.354;2022-08-23T09:38:02;94778.41;;;29.05;60.27
1954;BME280;977;42.704;23.354;2022-08-23T09:40:32;94770.03;;;29.65;59.27
1954;BME280;977;42.704;23.354;2022-08-23T09:43:14;94779.16;;;29.95;58.34
1954;BME280;977;42.704;23.354;2022-08-23T09:48:38;94767.06;;;30.07;56.03
1954;BME280;977;42.704;23.354;2022-08-23T09:51:29;94757.91;;;29.54;54.82
1954;BME280;977;42.704;23.354;2022-08-23T09:54:13;94781.19;;;28.86;58.23
1954;BME280;977;42.704;23.354;2022-08-23T09:56:43;94771.06;;;28.97;57.76
1954;BME280;977;42.704;23.354;2022-08-23T10:01:59;94772.03;;;29.60;56.49
1954;BME280;977;42.704;23.354;2022-08-23T10:04:59;94771.47;;;30.11;53.83
1954;BME280;977;42.704;23.354;2022-08-23T10:07:27;94779.50;;;30.34;53.40
1954;BME280;977;42.704;23.354;2022-08-23T10:09:53;94769.13;;;30.58;53.07
1954;BME280;977;42.704;23.354;2022-08-23T10:12:19;94779.63;;;30.86;52.39
1954;BME280;977;42.704;23.354;2022-08-23T10:14:45;94767.47;;;31.23;52.72
1954;BME280;977;42.704;23.354;2022-08-23T10:17:30;94777.41;;;31.74;50.88
1954;BME280;977;42.704;23.354;2022-08-23T10:20:30;94775.72;;;31.52;49.50
1954;BME280;977;42.704;23.354;2022-08-23T10:23:27;94771.34;;;30.56;52.60
1954;BME280;977;42.704;23.354;2022-08-23T10:25:59;94768.50;;;30.52;51.35
1954;BME280;977;42.704;23.354;2022-08-23T10:31:35;94766.38;;;31.50;49.82
1954;BME280;977;42.704;23.354;2022-08-23T10:39:46;94748.50;;;30.76;50.55
1954;BME280;977;42.704;23.354;2022-08-23T10:42:39;94748.34;;;30.90;50.54
1954;BME280;977;42.704;23.354;2022-08-23T10:50:26;94747.41;;;30.20;51.55
1954;BME280;977;42.704;23.354;2022-08-23T10:53:10;94744.00;;;28.98;54.97
1954;BME280;977;42.704;23.354;2022-08-23T10:55:39;94747.81;;;29.06;55.76
1954;BME280;977;42.704;23.354;2022-08-23T10:58:47;94732.66;;;29.01;55.69
1954;BME280;977;42.704;23.354;2022-08-23T11:01:20;94741.22;;;29.12;56.47
1954;BME280;977;42.704;23.354;2022-08-23T11:04:07;94740.94;;;29.36;55.69
1954;BME280;977;42.704;23.354;2022-08-23T11:06:40;94740.81;;;29.64;54.24
1954;BME280;977;42.704;23.354;2022-08-23T11:11:46;94753.44;;;29.63;53.41
1954;BME280;977;42.704;23.354;2022-08-23T11:20:05;94739.41;;;28.99;55.05
1954;BME280;977;42.704;23.354;2022-08-23T11:27:48;94734.88;;;29.22;53.75
1954;BME280;977;42.704;23.354;2022-08-23T11:33:13;94738.66;;;29.52;55.48
1954;BME280;977;42.704;23.354;2022-08-23T11:35:49;94726.91;;;29.62;52.75
1954;BME280;977;42.704;23.354;2022-08-23T11:43:45;94725.44;;;29.87;52.11
1954;BME280;977;42.704;23.354;2022-08-23T11:48:40;94717.50;;;29.73;52.92
1954;BME280;977;42.704;23.354;2022-08-23T11:54:07;94727.28;;;30.09;52.79
1954;BME280;977;42.704;23.354;2022-08-23T12:02:39;94718.69;;;29.89;53.79
1954;BME280;977;42.704;23.354;2022-08-23T12:18:50;94731.13;;;29.09;56.70
1954;BME280;977;42.704;23.354;2022-08-23T12:21:23;94715.91;;;28.82;56.23
1954;BME280;977;42.704;23.354;2022-08-23T12:23:53;94715.91;;;28.96;55.70
1954;BME280;977;42.704;23.354;2022-08-23T12:26:28;94729.00;;;28.84;56.72
1954;BME280;977;42.704;23.354;2022-08-23T12:29:02;94737.78;;;28.75;55.04
1954;BME280;977;42.704;23.354;2022-08-23T12:31:38;94721.50;;;28.72;54.97
1954;BME280;977;42.704;23.354;2022-08-23T12:34:59;94707.88;;;28.46;54.73
1954;BME280;977;42.704;23.354;2022-08-23T12:37:05;94715.59;;;28.61;54.64
1954;BME280;977;42.704;23.354;2022-08-23T12:39:39;94729.47;;;28.63;55.95
1954;BME280;977;42.704;23.354;2022-08-23T12:42:13;94721.91;;;28.65;55.08
1954;BME280;977;42.704;23.354;2022-08-23T12:44:41;94719.97;;;28.57;55.15
1954;BME280;977;42.704;23.354;2022-08-23T12:47:15;94713.06;;;28.15;56.43
1954;BME280;977;42.704;23.354;2022-08-23T12:49:59;94708.59;;;28.10;58.15
1954;BME280;977;42.704;23.354;2022-08-23T12:52:28;94699.38;;;28.02;59.36
1954;BME280;977;42.704;23.354;2022-08-23T12:54:54;94696.75;;;27.70;60.73
1954;BME280;977;42.704;23.354;2022-08-23T12:57:37;94695.84;;;27.61;61.53
1954;BME280;977;42.704;23.354;2022-08-23T13:00:20;94703.50;;;27.67;61.91
1954;BME280;977;42.704;23.354;2022-08-23T13:02:54;94706.13;;;27.72;62.07
1954;BME280;977;42.704;23.354;2022-08-23T13:06:04;94693.97;;;27.61;61.97
1954;BME280;977;42.704;23.354;2022-08-23T13:08:51;94700.91;;;27.48;62.24
1954;BME280;977;42.704;23.354;2022-08-23T13:11:21;94702.13;;;27.23;63.09
1954;BME280;977;42.704;23.354;2022-08-23T13:13:48;94694.19;;;27.18;62.93
1954;BME280;977;42.704;23.354;2022-08-23T13:19:21;94698.03;;;27.12;63.14
1954;BME280;977;42.704;23.354;2022-08-23T13:22:25;94678.84;;;27.10;62.95
1954;BME280;977;42.704;23.354;2022-08-23T13:25:09;94697.31;;;27.39;62.38
1954;BME280;977;42.704;23.354;2022-08-23T13:32:44;94678.59;;;27.86;61.80
1954;BME280;977;42.704;23.354;2022-08-23T13:37:52;94660.56;;;27.77;60.57
1954;BME280;977;42.704;23.354;2022-08-23T13:40:25;94664.59;;;27.75;60.77
1954;BME280;977;42.704;23.354;2022-08-23T13:43:19;94671.75;;;27.80;61.16
1954;BME280;977;42.704;23.354;2022-08-23T13:45:50;94670.81;;;27.70;60.93
1954;BME280;977;42.704;23.354;2022-08-23T13:48:24;94673.59;;;27.65;61.32
1954;BME280;977;42.704;23.354;2022-08-23T13:50:52;94662.09;;;27.51;62.28
1954;BME280;977;42.704;23.354;2022-08-23T13:53:18;94662.75;;;27.43;62.53
1954;BME280;977;42.704;23.354;2022-08-23T13:55:53;94651.69;;;27.36;62.30
1954;BME280;977;42.704;23.354;2022-08-23T13:58:31;94649.19;;;27.25;63.41
1954;BME280;977;42.704;23.354;2022-08-23T14:01:00;94661.66;;;27.16;63.80
1954;BME280;977;42.704;23.354;2022-08-23T14:03:26;94652.25;;;27.00;63.72
1954;BME280;977;42.704;23.354;2022-08-23T14:05:53;94665.13;;;26.98;63.82
1954;BME280;977;42.704;23.354;2022-08-23T14:08:19;94690.25;;;26.97;64.01
1954;BME280;977;42.704;23.354;2022-08-23T14:10:45;94706.00;;;26.80;66.58
1954;BME280;977;42.704;23.354;2022-08-23T14:13:13;94708.41;;;25.95;74.46
1954;BME280;977;42.704;23.354;2022-08-23T14:15:41;94710.22;;;25.47;78.76
1954;BME280;977;42.704;23.354;2022-08-23T14:18:07;94710.13;;;25.28;82.18
1954;BME280;977;42.704;23.354;2022-08-23T14:20:33;94725.88;;;25.24;84.19
1954;BME280;977;42.704;23.354;2022-08-23T14:22:59;94724.28;;;24.89;87.16
1954;BME280;977;42.704;23.354;2022-08-23T14:25:24;94740.91;;;24.66;91.37
1954;BME280;977;42.704;23.354;2022-08-23T14:27:50;94733.88;;;24.31;98.70
1954;BME280;977;42.704;23.354;2022-08-23T14:30:33;94736.41;;;23.96;100.00
1954;BME280;977;42.704;23.354;2022-08-23T14:33:01;94732.78;;;23.41;100.00
1954;BME280;977;42.704;23.354;2022-08-23T14:35:27;94755.63;;;22.91;100.00
1954;BME280;977;42.704;23.354;2022-08-23T14:37:53;94756.59;;;22.65;100.00
1954;BME280;977;42.704;23.354;2022-08-23T14:40:18;94755.22;;;22.47;100.00
1954;BME280;977;42.704;23.354;2022-08-23T14:42:45;94755.00;;;22.54;100.00
1954;BME280;977;42.704;23.354;2022-08-23T14:45:11;94738.31;;;22.63;100.00
1954;BME280;977;42.704;23.354;2022-08-23T14:47:38;94764.72;;;22.33;100.00
1954;BME280;977;42.704;23.354;2022-08-23T14:50:06;94770.03;;;22.33;100.00
1954;BME280;977;42.704;23.354;2022-08-23T14:52:32;94777.53;;;22.51;100.00
1954;BME280;977;42.704;23.354;2022-08-23T14:54:59;94790.03;;;22.66;100.00
1954;BME280;977;42.704;23.354;2022-08-23T14:57:25;94784.19;;;22.54;100.00
1954;BME280;977;42.704;23.354;2022-08-23T14:59:50;94779.09;;;22.42;100.00
1954;BME280;977;42.704;23.354;2022-08-23T15:02:23;94762.66;;;22.45;100.00